Time;durP1;ratioP1;P1;durP2;ratioP2;P2;SDS_P1;SDS_P2;PMS_P1;PMS_P2;Temp;Humidity;BMP_temperature;BMP_pressure;BME280_temperature;BME280_humidity;BME280_pressure;Samples;Min_cycle;Max_cycle;Signal;HPM_P1;HPM_P2
2022/11/19 00:02:25;;;;;;;21.40;15.57;;;10.10;99.90;;;;;;5056941;28;20119;-62
2022/11/19 00:04:51;;;;;;;22.23;16.13;;;10.10;99.90;;;;;;5056276;28;20151;-62
2022/11/19 00:07:17;;;;;;;19.02;15.70;;;10.10;99.90;;;;;;5039745;28;20327;-62
2022/11/19 00:09:42;;;;;;;19.17;15.82;;;10.00;99.90;;;;;;5057073;28;20335;-60
2022/11/19 00:14:54;;;;;;;21.02;16.02;;;10.10;99.90;;;;;;5056939;28;20120;-62
2022/11/19 00:17:19;;;;;;;22.08;17.15;;;10.10;99.90;;;;;;5056025;28;20132;-61
2022/11/19 00:19:45;;;;;;;19.92;16.80;;;10.20;99.90;;;;;;5056107;28;20104;-62
2022/11/19 00:22:11;;;;;;;18.63;15.82;;;10.30;99.90;;;;;;5023024;28;20040;-60
2022/11/19 00:24:38;;;;;;;20.58;15.73;;;10.40;99.90;;;;;;5057010;28;20281;-62
2022/11/19 00:27:04;;;;;;;21.85;16.63;;;10.40;99.90;;;;;;5056011;28;20090;-61
2022/11/19 00:29:30;;;;;;;22.08;17.05;;;10.40;99.90;;;;;;5056705;28;20029;-62
2022/11/19 00:31:56;;;;;;;28.70;17.70;;;10.40;99.90;;;;;;5056770;28;20304;-60
2022/11/19 00:34:22;;;;;;;22.38;17.00;;;10.50;99.90;;;;;;5023020;28;20119;-62
2022/11/19 00:36:47;;;;;;;23.25;16.70;;;10.50;99.90;;;;;;5022806;28;20119;-61
2022/11/19 00:39:13;;;;;;;20.42;17.50;;;10.60;99.90;;;;;;5055834;28;20029;-61
2022/11/19 00:41:39;;;;;;;20.02;17.45;;;10.60;99.90;;;;;;5022776;28;20086;-61
2022/11/19 00:44:05;;;;;;;20.65;16.35;;;10.60;99.90;;;;;;5056476;28;20080;-60
2022/11/19 00:46:31;;;;;;;20.27;16.15;;;10.60;99.90;;;;;;5056789;28;20032;-60
2022/11/19 00:48:58;;;;;;;20.02;15.77;;;10.80;99.90;;;;;;5055734;28;20040;-60
2022/11/19 00:51:27;;;;;;;21.00;15.65;;;10.60;99.90;;;;;;5055756;28;20029;-61
2022/11/19 00:53:53;;;;;;;19.42;15.13;;;10.40;99.90;;;;;;5055738;28;20219;-61
2022/11/19 00:56:21;;;;;;;18.15;14.15;;;10.50;99.90;;;;;;5056320;28;20120;-61
2022/11/19 00:58:48;;;;;;;19.38;14.55;;;10.40;99.90;;;;;;5055688;28;20037;-62
2022/11/19 01:01:15;;;;;;;19.30;14.45;;;10.40;99.90;;;;;;5055725;28;20029;-61
2022/11/19 01:03:44;;;;;;;17.90;14.00;;;10.40;99.90;;;;;;5055626;28;20139;-61
2022/11/19 01:06:10;;;;;;;18.67;14.57;;;10.30;99.90;;;;;;5056052;28;20296;-61
2022/11/19 01:08:36;;;;;;;18.33;13.75;;;10.30;99.90;;;;;;5038923;28;20033;-61
2022/11/19 01:11:08;;;;;;;17.92;14.82;;;10.30;99.90;;;;;;5056414;28;20041;-61
2022/11/19 01:13:35;;;;;;;19.08;15.05;;;10.40;99.90;;;;;;5042927;28;20170;-62
2022/11/19 01:16:07;;;;;;;21.13;14.70;;;10.30;99.90;;;;;;5059485;28;20032;-62
2022/11/19 01:18:34;;;;;;;17.45;13.60;;;10.20;99.90;;;;;;5059486;28;20029;-63
2022/11/19 01:21:03;;;;;;;19.15;14.95;;;10.20;99.90;;;;;;5059867;28;20025;-62
2022/11/19 01:23:29;;;;;;;18.25;13.85;;;10.20;99.90;;;;;;5042844;28;20025;-64
2022/11/19 01:25:55;;;;;;;18.98;14.43;;;10.10;99.90;;;;;;5059262;28;20033;-62
2022/11/19 01:28:21;;;;;;;22.77;15.25;;;10.20;99.90;;;;;;5059814;28;20309;-62
2022/11/19 01:30:47;;;;;;;19.48;15.02;;;10.20;99.90;;;;;;5059927;28;20029;-63
2022/11/19 01:33:13;;;;;;;23.63;14.98;;;10.20;99.90;;;;;;5059112;28;20328;-62
2022/11/19 01:35:39;;;;;;;21.20;15.27;;;10.10;99.90;;;;;;5042401;28;20111;-62
2022/11/19 01:38:05;;;;;;;21.73;15.77;;;10.10;99.90;;;;;;5058850;28;20025;-62
2022/11/19 01:40:32;;;;;;;19.88;14.43;;;10.20;99.90;;;;;;5059192;28;20274;-63
2022/11/19 01:42:58;;;;;;;25.35;16.35;;;10.30;99.90;;;;;;5059014;28;20029;-64
2022/11/19 01:45:35;;;;;;;27.10;16.65;;;10.30;99.90;;;;;;5058902;28;20116;-63
2022/11/19 01:48:05;;;;;;;23.50;15.20;;;10.30;99.90;;;;;;5059699;28;20036;-63
2022/11/19 01:50:36;;;;;;;23.08;15.60;;;10.20;99.90;;;;;;5059627;28;20102;-63
2022/11/19 01:53:03;;;;;;;24.90;16.13;;;10.20;99.90;;;;;;5042031;28;20313;-61
2022/11/19 01:55:29;;;;;;;25.40;15.88;;;10.00;99.90;;;;;;5058758;28;20304;-62
2022/11/19 01:57:58;;;;;;;22.35;15.73;;;10.00;99.90;;;;;;5058442;28;20037;-63
2022/11/19 02:00:25;;;;;;;23.85;15.30;;;10.10;99.90;;;;;;5059358;28;20061;-63
2022/11/19 02:02:51;;;;;;;24.65;16.80;;;10.00;99.90;;;;;;5059322;28;20040;-62
2022/11/19 02:05:17;;;;;;;25.38;15.95;;;9.90;99.90;;;;;;5041723;28;20048;-63
2022/11/19 02:07:54;;;;;;;21.35;16.55;;;9.80;99.90;;;;;;5059194;28;20246;-63
2022/11/19 02:10:43;;;;;;;22.13;15.57;;;9.70;99.90;;;;;;5058979;28;20041;-63
2022/11/19 02:13:29;;;;;;;21.75;16.30;;;9.70;99.90;;;;;;5059105;28;20029;-62
2022/11/19 02:16:24;;;;;;;23.60;17.27;;;9.80;99.90;;;;;;5058145;28;20043;-62
2022/11/19 02:19:07;;;;;;;20.80;15.93;;;9.80;99.90;;;;;;5057901;28;20045;-62
2022/11/19 02:21:48;;;;;;;21.15;17.30;;;9.70;99.90;;;;;;5059197;28;20021;-62
2022/11/19 02:24:17;;;;;;;24.42;17.73;;;9.80;99.90;;;;;;5057107;28;20025;-62
2022/11/19 02:27:04;;;;;;;27.90;18.35;;;10.00;99.90;;;;;;5058088;28;20063;-61
2022/11/19 02:29:30;;;;;;;22.75;16.48;;;10.10;99.90;;;;;;5058854;28;20032;-62
2022/11/19 02:32:17;;;;;;;21.55;16.95;;;10.00;99.90;;;;;;5058685;28;20021;-62
2022/11/19 02:34:51;;;;;;;22.90;16.83;;;10.00;99.90;;;;;;5057882;28;20389;-62
2022/11/19 02:37:40;;;;;;;24.60;17.48;;;9.90;99.90;;;;;;5058930;28;20396;-63
2022/11/19 02:40:38;;;;;;;24.77;17.33;;;9.90;99.90;;;;;;5059149;28;20025;-63
2022/11/19 02:43:07;;;;;;;21.38;16.45;;;10.00;99.90;;;;;;5050597;28;20131;-63
2022/11/19 02:45:49;;;;;;;24.80;17.40;;;9.80;99.90;;;;;;5058169;28;20035;-64
2022/11/19 02:48:20;;;;;;;24.23;18.03;;;9.70;99.90;;;;;;5058539;28;20033;-63
2022/11/19 02:50:51;;;;;;;25.38;17.35;;;9.80;99.90;;;;;;5058412;28;20357;-64
2022/11/19 02:53:17;;;;;;;23.67;17.02;;;9.70;99.90;;;;;;5058398;28;20064;-64
2022/11/19 02:56:09;;;;;;;21.25;15.43;;;9.60;99.90;;;;;;5057675;28;20112;-64
2022/11/19 03:06:50;;;;;;;23.25;16.60;;;9.90;99.90;;;;;;5058338;28;20115;-64
2022/11/19 03:09:17;;;;;;;25.55;17.23;;;9.90;99.90;;;;;;5057322;28;20047;-64
2022/11/19 03:11:50;;;;;;;22.75;17.45;;;9.90;99.90;;;;;;5040868;28;20057;-64
2022/11/19 03:17:13;;;;;;;23.80;16.73;;;9.80;99.90;;;;;;5056991;28;20367;-64
2022/11/19 03:19:48;;;;;;;21.55;16.63;;;9.90;99.90;;;;;;5057828;28;20029;-63
2022/11/19 03:22:27;;;;;;;24.48;17.27;;;10.00;99.90;;;;;;5057805;28;20060;-64
2022/11/19 03:25:15;;;;;;;21.20;17.33;;;10.00;99.90;;;;;;5057797;28;20371;-63
2022/11/19 03:27:45;;;;;;;22.33;17.02;;;10.10;99.90;;;;;;5058001;28;20064;-64
2022/11/19 03:30:12;;;;;;;23.27;18.38;;;9.90;99.90;;;;;;5057014;28;20025;-64
2022/11/19 03:32:47;;;;;;;22.45;17.40;;;9.90;99.90;;;;;;5057543;28;20051;-64
2022/11/19 03:35:33;;;;;;;22.83;18.13;;;9.90;99.90;;;;;;5057956;28;20036;-63
2022/11/19 03:38:05;;;;;;;24.20;18.00;;;10.00;99.90;;;;;;5056753;28;20071;-63
2022/11/19 03:40:33;;;;;;;24.88;18.42;;;10.10;99.90;;;;;;5057828;28;20288;-63
2022/11/19 03:43:04;;;;;;;25.00;18.17;;;10.10;99.90;;;;;;5057700;28;20391;-64
2022/11/19 03:45:34;;;;;;;27.45;18.20;;;10.10;99.90;;;;;;5057426;28;20041;-63
2022/11/19 03:48:02;;;;;;;23.92;17.52;;;10.00;99.90;;;;;;5056598;28;20090;-64
2022/11/19 03:51:07;;;;;;;28.20;19.15;;;10.00;99.90;;;;;;5040313;28;20029;-63
2022/11/19 03:53:33;;;;;;;22.48;17.48;;;10.10;99.90;;;;;;5046681;28;20088;-63
2022/11/19 03:56:02;;;;;;;24.30;19.17;;;10.10;99.90;;;;;;5039995;28;20056;-63
2022/11/19 03:58:28;;;;;;;25.13;19.65;;;10.10;99.90;;;;;;5057026;28;20119;-63
2022/11/19 04:00:55;;;;;;;27.00;19.38;;;10.00;99.90;;;;;;5057106;28;20036;-63
2022/11/19 04:03:20;;;;;;;26.10;19.65;;;9.90;99.90;;;;;;5056829;28;20274;-64
2022/11/19 04:05:46;;;;;;;23.27;18.75;;;9.90;99.90;;;;;;5057130;28;20048;-63
2022/11/19 04:08:12;;;;;;;24.55;18.73;;;9.80;99.90;;;;;;5039933;28;20033;-63
2022/11/19 04:10:38;;;;;;;22.60;17.67;;;9.70;99.90;;;;;;5056416;28;20342;-63
2022/11/19 04:13:04;;;;;;;25.23;19.77;;;9.80;99.90;;;;;;5056201;28;20110;-63
2022/11/19 04:15:29;;;;;;;27.70;19.65;;;9.90;99.90;;;;;;5056853;28;20032;-64
2022/11/19 04:17:55;;;;;;;26.30;19.90;;;9.90;99.90;;;;;;5056121;28;20126;-63
2022/11/19 04:20:21;;;;;;;25.77;20.10;;;9.90;99.90;;;;;;5057002;28;20455;-64
2022/11/19 04:22:50;;;;;;;24.50;20.02;;;9.80;99.90;;;;;;5023109;28;20033;-64
2022/11/19 04:25:16;;;;;;;25.65;20.08;;;9.90;99.90;;;;;;5056735;28;20037;-63
2022/11/19 04:27:44;;;;;;;25.88;20.73;;;9.80;99.90;;;;;;5057010;28;20059;-63
2022/11/19 04:30:10;;;;;;;27.98;20.80;;;9.90;99.90;;;;;;5056890;28;20048;-63
2022/11/19 04:32:36;;;;;;;26.90;21.17;;;10.00;99.90;;;;;;5056905;28;20089;-63
2022/11/19 04:35:02;;;;;;;28.23;20.88;;;10.10;99.90;;;;;;5039513;28;20117;-64
2022/11/19 04:37:28;;;;;;;24.25;17.40;;;10.10;99.90;;;;;;5056281;28;20033;-63
2022/11/19 04:39:54;;;;;;;23.48;16.50;;;10.00;99.90;;;;;;5056707;28;20027;-63
2022/11/19 04:42:19;;;;;;;20.38;15.10;;;9.90;99.90;;;;;;5039809;28;20051;-63
2022/11/19 04:44:45;;;;;;;18.83;13.77;;;9.70;99.90;;;;;;5022814;28;20400;-63
2022/11/19 04:47:11;;;;;;;18.75;13.20;;;9.60;99.90;;;;;;5058017;28;20033;-63
2022/11/19 04:49:37;;;;;;;17.00;13.32;;;9.40;99.90;;;;;;5060042;28;20037;-63
2022/11/19 04:52:03;;;;;;;19.65;13.77;;;9.30;99.90;;;;;;5060904;28;20047;-63
2022/11/19 04:54:28;;;;;;;20.45;13.95;;;9.20;99.90;;;;;;5059864;28;20037;-63
2022/11/19 04:56:54;;;;;;;17.55;13.35;;;9.20;99.90;;;;;;5059756;28;20037;-63
2022/11/19 04:59:20;;;;;;;19.95;14.63;;;9.20;99.90;;;;;;5060586;28;20029;-63
2022/11/19 05:01:46;;;;;;;18.17;13.38;;;9.20;99.90;;;;;;5043243;28;20135;-63
2022/11/19 05:04:12;;;;;;;16.83;12.93;;;9.10;99.90;;;;;;5042856;28;20432;-63
2022/11/19 05:06:37;;;;;;;17.35;12.40;;;8.90;99.90;;;;;;5060319;28;20033;-63
2022/11/19 05:09:03;;;;;;;17.70;12.88;;;8.80;99.90;;;;;;5060377;28;20356;-63
2022/11/19 05:11:29;;;;;;;15.57;11.68;;;8.70;99.90;;;;;;5059728;28;20029;-63
2022/11/19 05:13:55;;;;;;;17.63;12.30;;;8.80;99.90;;;;;;5059457;28;20033;-63
2022/11/19 05:16:20;;;;;;;16.30;12.23;;;8.70;99.90;;;;;;5059399;28;20048;-63
2022/11/19 05:18:46;;;;;;;15.57;11.70;;;8.60;99.90;;;;;;5059343;28;20025;-62
2022/11/19 05:21:12;;;;;;;16.50;11.85;;;8.60;99.90;;;;;;5042671;28;20029;-63
2022/11/19 05:23:38;;;;;;;17.67;12.40;;;8.60;99.90;;;;;;5059299;28;20413;-63
2022/11/19 05:26:04;;;;;;;17.67;12.27;;;8.70;99.90;;;;;;5026279;28;20128;-63
2022/11/19 05:28:31;;;;;;;16.70;12.35;;;8.70;99.90;;;;;;5059151;28;20040;-64
2022/11/19 05:30:58;;;;;;;16.20;12.40;;;8.60;99.90;;;;;;5059183;28;20094;-63
2022/11/19 05:33:24;;;;;;;15.65;11.68;;;8.40;99.90;;;;;;5059297;28;20105;-63
2022/11/19 05:35:50;;;;;;;14.43;10.70;;;8.20;99.90;;;;;;5059170;28;20304;-63
2022/11/19 05:38:16;;;;;;;16.02;11.70;;;7.90;99.90;;;;;;5059215;28;20043;-63
2022/11/19 05:40:45;;;;;;;15.95;11.63;;;7.90;99.90;;;;;;5059076;28;20079;-64
2022/11/19 05:43:11;;;;;;;16.63;11.40;;;7.90;99.90;;;;;;5058916;28;20040;-64
2022/11/19 05:45:37;;;;;;;17.98;12.80;;;7.80;99.90;;;;;;5058785;28;20021;-65
2022/11/19 05:48:04;;;;;;;17.35;11.23;;;7.80;99.90;;;;;;5059599;28;20126;-65
2022/11/19 05:50:29;;;;;;;14.77;11.35;;;7.90;99.90;;;;;;5058990;28;20041;-64
2022/11/19 05:52:57;;;;;;;13.75;10.57;;;7.90;99.90;;;;;;5059549;28;20055;-64
2022/11/19 05:55:23;;;;;;;15.77;11.35;;;7.90;99.90;;;;;;5042024;28;20136;-64
2022/11/19 05:57:49;;;;;;;14.48;10.55;;;8.00;99.90;;;;;;5058911;28;20116;-64
2022/11/19 06:00:16;;;;;;;13.25;10.50;;;7.90;99.90;;;;;;5042093;28;20042;-64
2022/11/19 06:02:42;;;;;;;12.90;10.43;;;7.90;99.90;;;;;;5058731;28;20400;-64
2022/11/19 06:05:09;;;;;;;15.40;10.48;;;7.90;99.90;;;;;;5041784;28;20053;-64
2022/11/19 06:07:35;;;;;;;10.75;9.05;;;7.70;99.90;;;;;;5058556;28;20079;-63
2022/11/19 06:10:00;;;;;;;11.93;8.93;;;7.60;99.90;;;;;;5058370;28;20049;-63
2022/11/19 06:12:26;;;;;;;12.73;9.13;;;7.60;99.90;;;;;;5041856;28;20110;-63
2022/11/19 06:14:52;;;;;;;12.00;8.73;;;7.70;99.90;;;;;;5041821;28;20033;-63
2022/11/19 06:17:18;;;;;;;11.02;8.68;;;7.60;99.90;;;;;;5041752;28;20059;-63
2022/11/19 06:19:43;;;;;;;10.93;8.10;;;7.50;99.90;;;;;;5059212;28;20414;-63
2022/11/19 06:22:09;;;;;;;8.95;7.35;;;7.40;99.90;;;;;;5059082;28;20033;-64
2022/11/19 06:24:35;;;;;;;8.98;7.22;;;7.40;99.90;;;;;;5058199;28;20033;-63
2022/11/19 06:27:01;;;;;;;8.15;6.88;;;7.20;99.90;;;;;;5058111;28;20324;-63
2022/11/19 06:29:26;;;;;;;10.20;7.55;;;7.30;99.90;;;;;;5058283;28;20036;-62
2022/11/19 06:31:52;;;;;;;9.68;8.05;;;7.20;99.90;;;;;;5041444;28;20308;-63
2022/11/19 06:34:18;;;;;;;9.05;7.38;;;7.10;99.90;;;;;;5058851;28;20170;-63
2022/11/19 06:36:44;;;;;;;7.72;6.93;;;7.10;99.90;;;;;;5059089;28;20052;-65
2022/11/19 06:39:10;;;;;;;8.32;7.40;;;7.10;99.90;;;;;;5041434;28;20028;-63
2022/11/19 06:41:35;;;;;;;8.25;6.57;;;7.10;99.90;;;;;;5041276;28;20407;-64
2022/11/19 06:44:02;;;;;;;8.18;6.70;;;7.00;99.90;;;;;;5057727;28;20033;-64
2022/11/19 06:46:28;;;;;;;8.25;6.45;;;7.00;99.90;;;;;;5041374;28;20044;-64
2022/11/19 06:48:53;;;;;;;7.30;6.25;;;7.00;99.90;;;;;;5057693;28;20393;-63
2022/11/19 06:51:19;;;;;;;6.85;5.80;;;6.90;99.90;;;;;;5059019;28;20037;-65
2022/11/19 06:53:45;;;;;;;5.80;5.20;;;6.90;99.90;;;;;;5057671;28;20032;-63
2022/11/19 06:56:11;;;;;;;5.72;5.13;;;6.90;99.90;;;;;;5041091;28;20043;-62
2022/11/19 06:58:37;;;;;;;5.45;4.95;;;6.70;99.90;;;;;;5057556;28;20068;-63
2022/11/19 07:01:03;;;;;;;5.95;5.30;;;6.50;99.90;;;;;;5058063;28;20361;-63
2022/11/19 07:03:29;;;;;;;6.03;5.38;;;6.60;99.90;;;;;;5058192;28;20033;-62
2022/11/19 07:05:58;;;;;;;6.40;5.80;;;6.70;99.90;;;;;;5041217;28;20430;-64
2022/11/19 07:08:24;;;;;;;7.70;5.65;;;6.50;99.90;;;;;;5057330;28;20048;-63
2022/11/19 07:10:50;;;;;;;7.03;6.00;;;6.50;99.90;;;;;;5056758;28;20032;-63
2022/11/19 07:13:16;;;;;;;7.80;6.93;;;6.60;99.90;;;;;;5040645;28;20048;-64
2022/11/19 07:15:42;;;;;;;11.55;7.70;;;6.50;99.90;;;;;;5058072;28;20094;-64
2022/11/19 07:18:08;;;;;;;8.75;7.80;;;6.40;99.90;;;;;;5057100;28;20044;-64
2022/11/19 07:20:34;;;;;;;8.02;6.47;;;6.30;99.90;;;;;;5057071;28;20422;-64
2022/11/19 07:22:59;;;;;;;8.20;7.28;;;6.30;99.90;;;;;;5057912;28;20034;-63
2022/11/19 07:25:26;;;;;;;8.02;6.80;;;6.40;99.90;;;;;;5057165;28;20067;-66
2022/11/19 07:27:52;;;;;;;8.82;7.00;;;6.30;99.90;;;;;;5057065;28;20356;-64
2022/11/19 07:30:18;;;;;;;8.00;6.93;;;6.20;99.90;;;;;;5023922;28;20037;-65
2022/11/19 07:32:43;;;;;;;8.85;7.50;;;6.20;99.90;;;;;;5057148;28;20385;-65
2022/11/19 07:35:10;;;;;;;8.57;7.32;;;6.30;99.90;;;;;;5040317;28;20400;-66
2022/11/19 07:37:37;;;;;;;8.82;7.00;;;6.30;99.90;;;;;;5056654;28;20033;-67
2022/11/19 07:40:04;;;;;;;8.52;7.15;;;6.10;99.90;;;;;;5056790;28;20304;-65
2022/11/19 07:42:48;;;;;;;9.00;7.50;;;6.10;99.90;;;;;;5056622;28;20093;-67
2022/11/19 07:45:18;;;;;;;9.77;7.88;;;6.00;99.90;;;;;;5056559;28;20033;-65
2022/11/19 07:47:44;;;;;;;10.40;8.18;;;5.90;99.90;;;;;;5040130;28;20154;-65
2022/11/19 07:50:11;;;;;;;11.02;7.90;;;6.00;99.90;;;;;;5039814;28;20120;-68
2022/11/19 07:52:36;;;;;;;12.20;8.85;;;6.20;99.90;;;;;;5057188;28;20029;-65
2022/11/19 07:55:02;;;;;;;11.43;8.95;;;6.20;99.90;;;;;;5056437;28;20052;-65
2022/11/19 07:57:28;;;;;;;11.18;8.77;;;6.20;99.90;;;;;;5056317;28;20045;-66
2022/11/19 07:59:54;;;;;;;12.52;8.88;;;6.30;99.90;;;;;;5039811;28;20086;-66
2022/11/19 08:02:20;;;;;;;11.48;8.10;;;6.40;99.90;;;;;;5056422;28;20040;-65
2022/11/19 08:04:46;;;;;;;10.20;8.60;;;6.30;99.90;;;;;;5056341;28;20408;-65
2022/11/19 08:07:11;;;;;;;12.40;9.23;;;6.30;99.90;;;;;;5039910;28;20033;-65
2022/11/19 08:09:37;;;;;;;11.13;9.00;;;6.40;99.90;;;;;;5039742;28;20106;-65
2022/11/19 08:12:03;;;;;;;14.55;10.65;;;6.30;99.90;;;;;;5056158;28;20039;-65
2022/11/19 08:14:29;;;;;;;14.82;11.18;;;6.20;99.90;;;;;;5056313;28;20065;-65
2022/11/19 08:19:39;;;;;;;17.95;12.35;;;6.20;99.90;;;;;;5056905;28;20060;-65
2022/11/19 08:22:05;;;;;;;17.85;13.20;;;6.20;99.90;;;;;;5055274;28;20067;-65
2022/11/19 08:24:31;;;;;;;20.80;13.63;;;6.00;99.90;;;;;;5056067;28;20033;-65
2022/11/19 08:26:57;;;;;;;20.58;14.40;;;5.90;99.90;;;;;;5056388;28;20029;-66
2022/11/19 08:29:22;;;;;;;20.85;13.52;;;5.90;99.90;;;;;;5023048;28;20044;-66
2022/11/19 08:31:50;;;;;;;20.88;15.05;;;5.80;99.90;;;;;;5055971;28;20420;-67
2022/11/19 08:34:16;;;;;;;20.77;14.75;;;5.50;99.90;;;;;;5056327;28;20091;-64
2022/11/19 08:36:43;;;;;;;24.90;15.82;;;5.40;99.90;;;;;;5055763;28;20286;-64
2022/11/19 08:39:09;;;;;;;26.02;17.55;;;5.50;99.90;;;;;;5056557;28;20312;-66
2022/11/19 08:44:20;;;;;;;26.20;17.40;;;5.60;99.90;;;;;;5056787;28;20047;-64
2022/11/19 08:46:46;;;;;;;30.73;18.83;;;5.60;99.90;;;;;;5039404;28;20033;-64
2022/11/19 08:49:12;;;;;;;29.08;18.65;;;5.60;99.90;;;;;;5056047;28;20025;-65
2022/11/19 08:51:38;;;;;;;30.35;19.13;;;5.40;99.90;;;;;;5056725;28;20119;-67
2022/11/19 08:54:04;;;;;;;30.15;18.65;;;5.40;99.90;;;;;;5056843;28;20037;-68
2022/11/19 08:56:30;;;;;;;29.77;20.15;;;5.50;99.90;;;;;;5055752;28;20036;-64
2022/11/19 08:58:56;;;;;;;34.08;21.60;;;5.50;99.90;;;;;;5055959;28;20029;-64
2022/11/19 09:01:22;;;;;;;31.67;20.65;;;5.30;99.90;;;;;;5039204;28;20108;-64
2022/11/19 09:03:48;;;;;;;33.13;21.27;;;5.30;99.90;;;;;;5038853;28;20128;-65
2022/11/19 09:06:15;;;;;;;31.10;20.85;;;5.40;99.90;;;;;;5056557;28;20048;-65
2022/11/19 09:08:41;;;;;;;32.78;20.73;;;5.50;99.90;;;;;;5055657;28;20347;-64
2022/11/19 09:11:09;;;;;;;32.00;20.67;;;5.40;99.90;;;;;;5055734;28;20040;-65
2022/11/19 09:13:35;;;;;;;35.80;22.05;;;5.50;99.90;;;;;;5055361;28;20072;-66
2022/11/19 09:16:02;;;;;;;36.45;22.65;;;5.30;99.90;;;;;;5055332;28;20033;-66
2022/11/19 09:18:28;;;;;;;35.50;23.10;;;5.50;99.90;;;;;;5055427;28;20029;-64
2022/11/19 09:20:54;;;;;;;36.20;22.90;;;5.70;99.90;;;;;;5055426;28;20036;-65
2022/11/19 09:23:22;;;;;;;33.17;22.30;;;5.70;99.90;;;;;;5055843;28;20033;-66
2022/11/19 09:26:15;;;;;;;34.20;23.33;;;5.50;99.90;;;;;;5056086;28;20025;-66
2022/11/19 09:28:42;;;;;;;36.75;22.73;;;5.60;99.90;;;;;;5055331;28;20087;-66
2022/11/19 09:31:18;;;;;;;35.75;22.35;;;5.60;99.90;;;;;;5038807;28;20127;-66
2022/11/19 09:33:47;;;;;;;36.13;23.50;;;5.60;99.90;;;;;;5058421;28;20098;-65
2022/11/19 09:36:13;;;;;;;38.40;23.65;;;6.10;99.90;;;;;;5058844;28;20100;-65
2022/11/19 09:38:40;;;;;;;35.83;23.17;;;5.70;99.90;;;;;;5059872;28;20079;-65
2022/11/19 09:41:28;;;;;;;35.03;23.02;;;5.60;99.90;;;;;;5042542;28;20036;-65
2022/11/19 09:44:12;;;;;;;34.25;22.38;;;5.50;99.90;;;;;;5058974;28;20056;-65
2022/11/19 09:46:37;;;;;;;36.38;23.20;;;5.40;99.90;;;;;;5059662;28;20025;-65
2022/11/19 09:49:10;;;;;;;37.97;23.77;;;5.60;99.90;;;;;;5059664;28;20112;-66
2022/11/19 09:51:41;;;;;;;38.15;24.17;;;5.70;99.90;;;;;;5058767;28;20017;-64
2022/11/19 09:54:14;;;;;;;36.17;23.30;;;5.60;99.90;;;;;;5058829;28;20033;-65
2022/11/19 09:56:49;;;;;;;39.05;24.33;;;5.20;99.90;;;;;;5058623;28;20404;-63
2022/11/19 09:59:37;;;;;;;35.45;23.13;;;5.20;99.90;;;;;;5058769;28;20082;-64
2022/11/19 10:02:21;;;;;;;39.88;24.90;;;5.20;99.90;;;;;;5058661;28;20043;-66
2022/11/19 10:04:50;;;;;;;41.22;25.67;;;5.40;99.90;;;;;;5058458;28;20375;-65
2022/11/19 10:07:39;;;;;;;46.30;27.10;;;5.50;99.90;;;;;;5059148;28;20388;-64
2022/11/19 10:10:11;;;;;;;50.13;28.63;;;5.50;99.90;;;;;;5058392;28;20024;-64
2022/11/19 10:13:13;;;;;;;46.42;28.75;;;5.60;99.90;;;;;;5059614;28;20037;-65
2022/11/19 10:16:05;;;;;;;46.10;27.73;;;5.60;99.90;;;;;;5059559;28;20043;-65
2022/11/19 10:18:51;;;;;;;46.55;28.98;;;5.50;99.90;;;;;;5056217;28;20037;-65
2022/11/19 10:21:52;;;;;;;46.17;27.65;;;5.50;99.90;;;;;;5059231;28;20400;-65
2022/11/19 10:24:24;;;;;;;46.20;27.42;;;5.30;99.90;;;;;;5058740;28;20044;-67
2022/11/19 10:26:59;;;;;;;46.22;28.58;;;5.20;99.90;;;;;;5058515;28;20044;-65
2022/11/19 10:29:28;;;;;;;46.15;28.10;;;5.20;99.90;;;;;;5059007;28;20392;-65
2022/11/19 10:32:28;;;;;;;50.45;27.50;;;5.10;99.90;;;;;;5059003;28;20057;-65
2022/11/19 10:34:59;;;;;;;51.25;29.02;;;5.30;99.90;;;;;;5059465;28;20317;-65
2022/11/19 10:37:32;;;;;;;47.50;28.33;;;5.10;99.90;;;;;;5058213;28;20048;-66
2022/11/19 10:40:03;;;;;;;45.08;27.83;;;5.10;99.90;;;;;;5058159;28;20341;-65
2022/11/19 10:42:35;;;;;;;46.92;27.52;;;5.10;99.90;;;;;;5058584;28;20037;-67
2022/11/19 10:45:08;;;;;;;44.42;26.13;;;5.00;99.90;;;;;;5057214;28;20021;-67
2022/11/19 10:47:50;;;;;;;48.17;28.05;;;4.90;99.90;;;;;;5058119;28;20044;-66
2022/11/19 10:50:18;;;;;;;45.53;27.58;;;4.80;99.90;;;;;;5058666;28;20025;-66
2022/11/19 10:52:54;;;;;;;47.90;27.33;;;5.00;99.90;;;;;;5057877;28;20029;-67
2022/11/19 10:55:28;;;;;;;50.10;28.02;;;5.00;99.90;;;;;;5058161;28;20044;-68
2022/11/19 10:58:15;;;;;;;47.20;27.50;;;5.20;99.90;;;;;;5057623;28;20041;-66
2022/11/19 11:00:42;;;;;;;48.42;26.95;;;4.90;99.90;;;;;;5057718;28;20407;-64
2022/11/19 11:03:40;;;;;;;51.00;28.55;;;5.20;99.90;;;;;;5058421;28;20028;-64
2022/11/19 11:06:08;;;;;;;48.40;28.65;;;5.20;99.90;;;;;;5057591;28;20029;-65
2022/11/19 11:08:52;;;;;;;50.42;28.38;;;5.40;99.90;;;;;;5041460;28;20049;-65
2022/11/19 11:11:23;;;;;;;53.67;28.58;;;5.40;99.90;;;;;;5041502;28;20097;-65
2022/11/19 11:16:45;;;;;;;55.78;29.98;;;5.70;99.90;;;;;;5057567;28;20055;-65
2022/11/19 11:19:15;;;;;;;56.15;29.83;;;5.80;99.90;;;;;;5058208;28;20021;-65
2022/11/19 11:21:44;;;;;;;50.30;29.60;;;5.70;99.90;;;;;;5058149;28;20045;-66
2022/11/19 11:24:12;;;;;;;54.08;31.42;;;5.60;99.90;;;;;;5041251;28;20041;-66
2022/11/19 11:26:39;;;;;;;55.13;29.67;;;5.60;99.90;;;;;;5058014;28;20072;-66
2022/11/19 11:29:24;;;;;;;55.50;30.95;;;5.60;99.90;;;;;;5057576;28;20155;-64
2022/11/19 11:31:51;;;;;;;61.53;31.98;;;5.70;99.90;;;;;;5057093;28;20021;-64
2022/11/19 11:34:28;;;;;;;60.22;32.88;;;5.70;99.90;;;;;;5058421;28;20040;-59
2022/11/19 11:36:55;;;;;;;61.15;32.20;;;5.60;99.90;;;;;;5057624;28;20083;-65
2022/11/19 11:39:35;;;;;;;60.08;32.35;;;5.60;99.90;;;;;;5057794;28;20021;-65
2022/11/19 11:42:01;;;;;;;60.00;33.35;;;5.70;99.90;;;;;;5057193;28;20396;-65
2022/11/19 11:44:36;;;;;;;62.80;33.97;;;5.70;99.90;;;;;;5057060;28;20404;-64
2022/11/19 11:47:16;;;;;;;59.47;33.40;;;5.60;99.90;;;;;;5056813;28;20025;-67
2022/11/19 11:49:54;;;;;;;56.85;31.58;;;5.40;99.90;;;;;;5056891;28;20067;-65
2022/11/19 11:52:27;;;;;;;65.25;34.75;;;5.60;99.90;;;;;;5057939;28;20063;-65
2022/11/19 11:54:55;;;;;;;66.22;35.00;;;5.60;99.90;;;;;;5056624;28;20029;-64
2022/11/19 11:57:36;;;;;;;62.85;34.17;;;5.50;99.90;;;;;;5039969;28;20043;-63
2022/11/19 12:00:30;;;;;;;59.08;31.17;;;5.50;99.90;;;;;;5056547;28;20347;-64
2022/11/19 12:03:15;;;;;;;62.10;32.42;;;5.50;99.90;;;;;;5057259;28;20017;-63
2022/11/19 12:05:55;;;;;;;60.97;33.13;;;5.40;99.90;;;;;;5057088;28;20049;-66
2022/11/19 12:08:33;;;;;;;59.05;31.92;;;5.70;99.90;;;;;;5056415;28;20041;-64
2022/11/19 12:11:05;;;;;;;59.53;32.88;;;5.70;99.90;;;;;;5040155;28;20424;-65
2022/11/19 12:14:08;;;;;;;63.67;33.67;;;5.70;99.90;;;;;;5056516;28;20049;-63
2022/11/19 12:16:54;;;;;;;68.03;35.40;;;5.70;99.90;;;;;;5052536;28;20127;-64
2022/11/19 12:19:37;;;;;;;61.20;32.42;;;5.80;99.90;;;;;;5056429;28;20120;-63
2022/11/19 12:22:05;;;;;;;;;;;5.70;99.90;;;;;;5056579;28;20032;-62
2022/11/19 12:24:34;;;;;;;66.78;33.45;;;5.80;99.90;;;;;;5057059;28;19928;-62
2022/11/19 12:27:33;;;;;;;65.30;35.40;;;5.80;99.90;;;;;;5056798;28;20036;-63
2022/11/19 12:30:19;;;;;;;67.57;36.92;;;5.90;99.90;;;;;;5039704;28;20040;-64
2022/11/19 12:33:13;;;;;;;60.92;32.97;;;5.90;99.90;;;;;;5056330;28;20422;-62
2022/11/19 12:36:09;;;;;;;67.93;36.03;;;5.90;99.90;;;;;;5056644;28;20047;-62
2022/11/19 12:39:00;;;;;;;63.17;34.53;;;5.90;99.90;;;;;;5056832;28;20081;-64
2022/11/19 12:41:35;;;;;;;66.57;33.92;;;5.70;99.90;;;;;;5057056;28;20086;-63
2022/11/19 12:44:11;;;;;;;69.65;35.22;;;5.80;99.90;;;;;;5056033;28;20033;-63
2022/11/19 12:46:40;;;;;;;59.47;33.60;;;5.90;99.90;;;;;;5056794;28;20319;-62
2022/11/19 12:49:51;;;;;;;66.40;35.20;;;6.00;99.90;;;;;;5056729;28;20104;-63
2022/11/19 12:52:29;;;;;;;61.88;33.67;;;6.00;99.90;;;;;;5056286;28;20112;-62
2022/11/19 12:55:19;;;;;;;63.40;34.00;;;5.90;99.90;;;;;;5055803;28;20033;-63
2022/11/19 12:58:03;;;;;;;60.40;33.63;;;5.70;99.90;;;;;;5056452;28;20167;-62
2022/11/19 13:00:30;;;;;;;64.75;33.50;;;5.80;99.90;;;;;;5056795;28;20085;-63
2022/11/19 13:03:20;;;;;;;65.85;34.20;;;5.70;99.90;;;;;;5056692;28;20064;-63
2022/11/19 13:06:16;;;;;;;66.07;33.55;;;5.90;99.90;;;;;;5055897;28;20044;-63
2022/11/19 13:08:59;;;;;;;57.35;31.67;;;6.00;99.90;;;;;;5059567;28;20107;-63
2022/11/19 13:11:35;;;;;;;58.80;32.22;;;5.90;99.90;;;;;;5060554;28;20048;-63
2022/11/19 13:14:22;;;;;;;57.63;31.63;;;5.90;99.90;;;;;;5059908;28;20033;-64
2022/11/19 13:16:50;;;;;;;61.63;32.28;;;5.70;99.90;;;;;;5060529;28;20029;-62
2022/11/19 13:19:27;;;;;;;63.20;33.35;;;5.70;99.90;;;;;;5059775;28;20056;-61
2022/11/19 13:22:17;;;;;;;61.35;33.53;;;5.70;99.90;;;;;;5059703;28;20359;-63